Time;durP1;ratioP1;P1;durP2;ratioP2;P2;SDS_P1;SDS_P2;PMS_P1;PMS_P2;Temp;Humidity;BMP_temperature;BMP_pressure;BME280_temperature;BME280_humidity;BME280_pressure;Samples;Min_cycle;Max_cycle;Signal;HPM_P1;HPM_P2
2023/10/23 00:01:38;;;;;;;12.23;9.23;;;;;;;;;;5073552;28;20819;-82
2023/10/23 00:04:04;;;;;;;10.43;9.33;;;;;;;;;;5073658;28;20493;-82
2023/10/23 00:06:30;;;;;;;11.20;9.27;;;;;;;;;;5074066;28;20439;-82
2023/10/23 00:08:58;;;;;;;12.20;9.10;;;;;;;;;;5073100;28;20459;-82
2023/10/23 00:11:26;;;;;;;10.13;9.13;;;;;;;;;;5073733;28;20442;-82
2023/10/23 00:13:53;;;;;;;10.63;8.40;;;;;;;;;;5073422;28;20462;-82
2023/10/23 00:16:20;;;;;;;12.20;9.33;;;;;;;;;;5072647;28;20440;-82
2023/10/23 00:18:46;;;;;;;10.93;9.83;;;;;;;;;;5072219;28;20475;-82
2023/10/23 00:21:14;;;;;;;10.30;9.20;;;;;;;;;;5073821;28;20442;-82
2023/10/23 00:23:40;;;;;;;12.43;9.10;;;;;;;;;;5072207;28;20462;-82
2023/10/23 00:26:08;;;;;;;12.47;11.17;;;;;;;;;;5071231;28;20860;-82
2023/10/23 00:28:35;;;;;;;12.30;10.00;;;;;;;;;;5072716;28;20438;-82
2023/10/23 00:31:01;;;;;;;11.90;9.57;;;;;;;;;;5073501;28;20469;-82
2023/10/23 00:33:28;;;;;;;14.37;9.50;;;;;;;;;;5073521;28;20439;-82
2023/10/23 00:35:55;;;;;;;14.93;10.00;;;;;;;;;;5072924;28;20470;-82
2023/10/23 00:38:21;;;;;;;13.63;10.87;;;;;;;;;;5073740;28;20482;-82
2023/10/23 00:40:48;;;;;;;11.07;9.30;;;;;;;;;;5072822;28;20474;-82
2023/10/23 00:43:18;;;;;;;14.13;9.43;;;;;;;;;;5073502;28;20450;-82
2023/10/23 00:45:49;;;;;;;14.03;9.67;;;;;;;;;;5072812;28;20493;-82
2023/10/23 00:48:16;;;;;;;9.00;8.10;;;;;;;;;;5072858;28;20443;-81
2023/10/23 00:50:42;;;;;;;13.40;9.10;;;;;;;;;;5073056;28;20463;-82
2023/10/23 00:53:09;;;;;;;12.70;10.83;;;;;;;;;;5073414;28;20450;-81
2023/10/23 00:55:35;;;;;;;13.30;9.40;;;;;;;;;;5073007;28;20470;-81
2023/10/23 00:58:02;;;;;;;17.17;10.67;;;;;;;;;;5073555;28;20478;-83
2023/10/23 01:00:30;;;;;;;13.60;12.13;;;;;;;;;;5072561;28;20463;-83
2023/10/23 01:02:56;;;;;;;16.83;10.13;;;;;;;;;;5073302;28;20952;-81
2023/10/23 01:05:23;;;;;;;11.93;10.43;;;;;;;;;;5073001;28;20467;-83
2023/10/23 01:07:50;;;;;;;12.30;10.57;;;;;;;;;;5073532;28;20435;-83
2023/10/23 01:10:16;;;;;;;10.00;9.00;;;;;;;;;;5072876;28;20469;-83
2023/10/23 01:12:42;;;;;;;10.70;8.70;;;;;;;;;;5072696;28;20443;-83
2023/10/23 01:15:09;;;;;;;13.83;10.03;;;;;;;;;;5073139;28;20470;-83
2023/10/23 01:17:37;;;;;;;13.47;9.90;;;;;;;;;;5073182;28;20995;-83
2023/10/23 01:20:04;;;;;;;10.80;9.70;;;;;;;;;;5072409;28;21015;-83
2023/10/23 01:22:30;;;;;;;10.90;9.90;;;;;;;;;;5073222;28;20947;-83
2023/10/23 01:24:57;;;;;;;12.67;9.43;;;;;;;;;;5072823;28;20474;-82
2023/10/23 01:27:25;;;;;;;11.30;9.10;;;;;;;;;;5072220;28;20443;-83
2023/10/23 01:29:51;;;;;;;10.73;8.90;;;;;;;;;;5072905;28;20462;-83
2023/10/23 01:32:17;;;;;;;11.30;10.20;;;;;;;;;;5073496;28;20446;-83
2023/10/23 01:34:44;;;;;;;10.67;9.57;;;;;;;;;;5072925;28;20546;-83
2023/10/23 01:37:10;;;;;;;11.70;10.50;;;;;;;;;;5074165;28;20450;-83
2023/10/23 01:39:37;;;;;;;11.40;10.10;;;;;;;;;;5076458;28;20542;-83
2023/10/23 01:42:04;;;;;;;13.60;10.40;;;;;;;;;;5076507;28;20443;-83
2023/10/23 01:44:32;;;;;;;16.60;10.93;;;;;;;;;;5076370;28;20482;-82
2023/10/23 01:46:58;;;;;;;14.17;10.67;;;;;;;;;;5075272;28;20443;-82
2023/10/23 01:49:25;;;;;;;14.00;11.37;;;;;;;;;;5076267;28;20843;-82
2023/10/23 01:51:51;;;;;;;15.40;11.13;;;;;;;;;;5076984;28;20442;-82
2023/10/23 01:54:17;;;;;;;13.30;11.40;;;;;;;;;;5074944;28;20977;-82
2023/10/23 01:56:44;;;;;;;15.53;11.70;;;;;;;;;;5076773;28;20822;-82
2023/10/23 01:59:10;;;;;;;15.83;10.83;;;;;;;;;;5076251;28;20471;-82
2023/10/23 02:01:39;;;;;;;15.10;11.67;;;;;;;;;;5076617;28;20947;-82
2023/10/23 02:04:06;;;;;;;13.60;10.60;;;;;;;;;;5076060;28;20826;-82
2023/10/23 02:06:32;;;;;;;14.43;11.63;;;;;;;;;;5059207;28;20500;-83
2023/10/23 02:08:59;;;;;;;16.73;11.50;;;;;;;;;;5073977;28;20512;-82
2023/10/23 02:11:25;;;;;;;14.57;11.40;;;;;;;;;;5076618;28;20435;-83
2023/10/23 02:13:52;;;;;;;14.80;11.20;;;;;;;;;;5076385;28;20471;-83
2023/10/23 02:16:18;;;;;;;13.67;11.00;;;;;;;;;;5075363;28;20443;-82
2023/10/23 02:18:47;;;;;;;16.50;12.07;;;;;;;;;;5075957;28;20992;-82
2023/10/23 02:21:13;;;;;;;12.23;9.83;;;;;;;;;;5075403;28;21006;-82
2023/10/23 02:23:40;;;;;;;13.50;11.23;;;;;;;;;;5074634;28;20459;-83
2023/10/23 02:26:06;;;;;;;13.13;10.60;;;;;;;;;;5075063;28;20439;-83
2023/10/23 02:28:32;;;;;;;11.67;10.10;;;;;;;;;;5076541;28;20442;-82
2023/10/23 02:31:02;;;;;;;15.37;11.93;;;;;;;;;;5075968;28;20459;-82
2023/10/23 02:33:28;;;;;;;17.20;12.43;;;;;;;;;;5076380;28;20439;-82
2023/10/23 02:35:56;;;;;;;15.53;11.13;;;;;;;;;;5075574;28;20463;-82
2023/10/23 02:38:22;;;;;;;11.30;10.07;;;;;;;;;;5076418;28;20489;-82
2023/10/23 02:40:52;;;;;;;11.97;10.50;;;;;;;;;;5076017;28;20467;-82
2023/10/23 02:43:19;;;;;;;12.80;10.30;;;;;;;;;;5076627;28;20447;-82
2023/10/23 02:45:45;;;;;;;17.07;11.27;;;;;;;;;;5075809;28;20547;-83
2023/10/23 02:48:11;;;;;;;13.13;10.50;;;;;;;;;;5075573;28;20450;-83
2023/10/23 02:50:38;;;;;;;16.40;11.17;;;;;;;;;;5075282;28;21019;-82
2023/10/23 02:53:06;;;;;;;11.40;9.40;;;;;;;;;;5075209;28;20500;-83
2023/10/23 02:55:32;;;;;;;13.30;10.57;;;;;;;;;;5075418;28;20535;-83
2023/10/23 02:57:59;;;;;;;14.20;10.87;;;;;;;;;;5075804;28;20474;-82
2023/10/23 03:00:25;;;;;;;19.13;12.80;;;;;;;;;;5075266;28;20992;-82
2023/10/23 03:02:51;;;;;;;18.23;11.03;;;;;;;;;;5075703;28;20466;-83
2023/10/23 03:05:18;;;;;;;14.30;10.97;;;;;;;;;;5075073;28;20470;-83
2023/10/23 03:07:44;;;;;;;14.60;12.00;;;;;;;;;;5074802;28;20564;-83
2023/10/23 03:10:12;;;;;;;16.70;11.83;;;;;;;;;;5075090;28;21019;-82
2023/10/23 03:12:38;;;;;;;16.37;12.40;;;;;;;;;;5075816;28;20492;-82
2023/10/23 03:15:06;;;;;;;18.97;12.10;;;;;;;;;;5075036;28;20843;-82
2023/10/23 03:17:32;;;;;;;17.23;12.50;;;;;;;;;;5075873;28;20443;-82
2023/10/23 03:19:58;;;;;;;16.03;11.90;;;;;;;;;;5075692;28;20471;-83
2023/10/23 03:22:25;;;;;;;13.67;10.47;;;;;;;;;;5075036;28;20462;-82
2023/10/23 03:24:51;;;;;;;17.77;11.20;;;;;;;;;;5075414;28;20996;-82
2023/10/23 03:27:19;;;;;;;15.97;11.67;;;;;;;;;;5075842;28;20529;-82
2023/10/23 03:29:45;;;;;;;15.77;10.83;;;;;;;;;;5075425;28;20466;-82
2023/10/23 03:32:12;;;;;;;13.40;11.07;;;;;;;;;;5075340;28;20438;-83
2023/10/23 03:34:38;;;;;;;18.70;12.43;;;;;;;;;;5075186;28;20478;-83
2023/10/23 03:37:05;;;;;;;15.60;12.03;;;;;;;;;;5074584;28;20462;-82
2023/10/23 03:39:31;;;;;;;21.87;13.47;;;;;;;;;;5074512;28;20474;-82
2023/10/23 03:41:57;;;;;;;18.90;12.13;;;;;;;;;;5074923;28;20819;-82
2023/10/23 03:44:25;;;;;;;16.53;13.10;;;;;;;;;;5074473;28;20857;-82
2023/10/23 03:46:52;;;;;;;19.30;12.57;;;;;;;;;;5075302;28;20447;-82
2023/10/23 03:49:18;;;;;;;16.00;13.47;;;;;;;;;;5074986;28;20466;-82
2023/10/23 03:51:44;;;;;;;16.03;11.90;;;;;;;;;;5074093;28;20466;-83
2023/10/23 03:54:11;;;;;;;16.83;11.73;;;;;;;;;;5074498;28;20996;-83
2023/10/23 03:56:37;;;;;;;17.70;12.27;;;;;;;;;;5075805;28;20795;-82
2023/10/23 03:59:04;;;;;;;20.57;12.40;;;;;;;;;;5074766;28;20471;-82
2023/10/23 04:01:32;;;;;;;20.83;13.20;;;;;;;;;;5074779;28;20457;-82
2023/10/23 04:03:59;;;;;;;14.83;11.97;;;;;;;;;;5073515;28;20877;-82
2023/10/23 04:06:25;;;;;;;17.27;12.37;;;;;;;;;;5075039;28;20450;-83
2023/10/23 04:08:52;;;;;;;15.43;11.80;;;;;;;;;;5074773;28;20443;-83
2023/10/23 04:11:18;;;;;;;16.80;12.40;;;;;;;;;;5073862;28;20932;-82
2023/10/23 04:13:44;;;;;;;13.23;10.90;;;;;;;;;;5073030;28;20467;-82
2023/10/23 04:16:10;;;;;;;13.13;9.73;;;;;;;;;;5073942;28;20445;-82
2023/10/23 04:18:38;;;;;;;13.10;11.00;;;;;;;;;;5074792;28;20570;-82
2023/10/23 04:21:05;;;;;;;15.60;11.47;;;;;;;;;;5075689;28;20200;-83
2023/10/23 04:23:32;;;;;;;17.97;12.20;;;;;;;;;;5074611;28;20546;-83
2023/10/23 04:25:58;;;;;;;16.50;10.93;;;;;;;;;;5074346;28;20467;-82
2023/10/23 04:28:24;;;;;;;17.80;11.37;;;;;;;;;;5075114;28;20435;-83
2023/10/23 04:30:51;;;;;;;12.33;9.50;;;;;;;;;;5074485;28;20535;-82
2023/10/23 04:33:21;;;;;;;15.20;11.00;;;;;;;;;;5074265;28;20446;-83
2023/10/23 04:35:49;;;;;;;13.43;10.23;;;;;;;;;;5074412;28;20477;-82
2023/10/23 04:38:15;;;;;;;14.20;10.80;;;;;;;;;;5074609;28;21035;-82
2023/10/23 04:40:42;;;;;;;14.50;10.40;;;;;;;;;;5072984;28;20467;-82
2023/10/23 04:43:17;;;;;;;14.63;11.57;;;;;;;;;;5074909;28;20960;-82
2023/10/23 04:45:43;;;;;;;12.80;10.40;;;;;;;;;;5074176;28;20473;-82
2023/10/23 04:48:10;;;;;;;17.70;10.97;;;;;;;;;;5073973;28;20447;-82
2023/10/23 04:50:37;;;;;;;14.90;10.60;;;;;;;;;;5073395;28;20478;-82
2023/10/23 04:53:06;;;;;;;14.97;10.67;;;;;;;;;;5075241;28;20440;-82
2023/10/23 04:55:33;;;;;;;17.07;11.43;;;;;;;;;;5074319;28;20475;-82
2023/10/23 04:58:00;;;;;;;13.67;10.10;;;;;;;;;;5074953;28;20439;-82
2023/10/23 05:00:26;;;;;;;14.90;10.60;;;;;;;;;;5073637;28;20539;-82
2023/10/23 05:02:53;;;;;;;13.20;10.87;;;;;;;;;;5075788;28;20439;-81
2023/10/23 05:05:19;;;;;;;20.23;11.63;;;;;;;;;;5074240;28;20478;-82
2023/10/23 05:07:45;;;;;;;12.33;9.93;;;;;;;;;;5075190;28;20442;-82
2023/10/23 05:10:13;;;;;;;14.17;9.90;;;;;;;;;;5073732;28;20996;-82
2023/10/23 05:12:40;;;;;;;9.33;7.83;;;;;;;;;;5075591;28;20936;-82
2023/10/23 05:15:07;;;;;;;12.60;9.20;;;;;;;;;;5076617;28;20980;-82
2023/10/23 05:17:34;;;;;;;13.30;10.10;;;;;;;;;;5076845;28;20443;-82
2023/10/23 05:20:01;;;;;;;12.80;10.30;;;;;;;;;;5077313;28;20470;-82
2023/10/23 05:22:27;;;;;;;12.87;10.10;;;;;;;;;;5076669;28;20449;-82
2023/10/23 05:24:53;;;;;;;15.53;10.77;;;;;;;;;;5076511;28;20470;-82
2023/10/23 05:27:21;;;;;;;15.10;10.47;;;;;;;;;;5077142;28;20964;-82
2023/10/23 05:29:47;;;;;;;16.10;10.60;;;;;;;;;;5077736;28;20474;-83
2023/10/23 05:32:13;;;;;;;15.70;11.03;;;;;;;;;;5076906;28;20438;-83
2023/10/23 05:34:39;;;;;;;14.23;9.40;;;;;;;;;;5076337;28;20243;-82
2023/10/23 05:37:06;;;;;;;13.97;10.53;;;;;;;;;;5078337;28;20438;-82
2023/10/23 05:39:33;;;;;;;15.77;10.60;;;;;;;;;;5076443;28;20492;-82
2023/10/23 05:41:59;;;;;;;10.83;8.13;;;;;;;;;;5078320;28;20441;-82
2023/10/23 05:44:27;;;;;;;13.67;10.00;;;;;;;;;;5077398;28;20874;-82
2023/10/23 05:46:53;;;;;;;11.80;8.90;;;;;;;;;;5076441;28;20439;-84
2023/10/23 05:49:20;;;;;;;13.17;8.30;;;;;;;;;;5077234;28;20471;-82
2023/10/23 05:51:46;;;;;;;10.50;7.70;;;;;;;;;;5077422;28;20439;-81
2023/10/23 05:54:12;;;;;;;11.60;8.80;;;;;;;;;;5077686;28;20553;-82
2023/10/23 05:56:39;;;;;;;13.70;9.90;;;;;;;;;;5078106;28;20442;-84
2023/10/23 05:59:05;;;;;;;11.67;9.47;;;;;;;;;;5076050;28;20504;-83
2023/10/23 06:01:33;;;;;;;14.80;11.10;;;;;;;;;;5076375;28;20447;-83
2023/10/23 06:04:00;;;;;;;13.50;10.37;;;;;;;;;;5077424;28;20467;-83
2023/10/23 06:06:26;;;;;;;12.10;9.47;;;;;;;;;;5077574;28;20431;-83
2023/10/23 06:08:53;;;;;;;15.50;11.93;;;;;;;;;;5075407;28;20447;-83
2023/10/23 06:11:19;;;;;;;14.53;9.83;;;;;;;;;;5077517;28;20439;-83
2023/10/23 06:13:45;;;;;;;17.43;11.80;;;;;;;;;;5076728;28;20485;-83
2023/10/23 06:16:12;;;;;;;16.03;10.63;;;;;;;;;;5075791;28;20944;-83
2023/10/23 06:18:40;;;;;;;17.90;11.47;;;;;;;;;;5075418;28;20497;-83
2023/10/23 06:21:07;;;;;;;14.23;10.83;;;;;;;;;;5077084;28;20963;-83
2023/10/23 06:23:34;;;;;;;16.33;12.60;;;;;;;;;;5074758;28;20463;-84
2023/10/23 06:26:00;;;;;;;19.60;11.30;;;;;;;;;;5075566;28;20524;-83
2023/10/23 06:28:27;;;;;;;17.23;12.93;;;;;;;;;;5077286;28;20439;-83
2023/10/23 06:30:53;;;;;;;14.57;10.80;;;;;;;;;;5076205;28;20474;-83
2023/10/23 06:33:19;;;;;;;12.37;9.23;;;;;;;;;;5076566;28;20446;-83
2023/10/23 06:35:56;;;;;;;14.70;9.50;;;;;;;;;;5075944;28;20490;-83
2023/10/23 06:38:22;;;;;;;13.93;10.50;;;;;;;;;;5075634;28;20492;-81
2023/10/23 06:40:49;;;;;;;16.37;9.97;;;;;;;;;;5075637;28;20467;-83
2023/10/23 06:43:15;;;;;;;15.27;12.10;;;;;;;;;;5075813;28;20455;-84
2023/10/23 06:45:42;;;;;;;13.60;10.57;;;;;;;;;;5075278;28;20854;-84
2023/10/23 06:48:08;;;;;;;17.30;11.00;;;;;;;;;;5076414;28;20500;-83
2023/10/23 06:50:35;;;;;;;15.87;11.10;;;;;;;;;;5074896;28;20473;-83
2023/10/23 06:53:03;;;;;;;13.80;11.00;;;;;;;;;;5076966;28;20446;-83
2023/10/23 06:55:29;;;;;;;20.03;13.27;;;;;;;;;;5076113;28;20515;-84
2023/10/23 06:57:56;;;;;;;19.10;13.40;;;;;;;;;;5076824;28;20435;-84
2023/10/23 07:00:22;;;;;;;16.20;11.60;;;;;;;;;;5075874;28;20483;-83
2023/10/23 07:02:49;;;;;;;16.07;11.80;;;;;;;;;;5076240;28;20948;-83
2023/10/23 07:05:15;;;;;;;17.80;13.00;;;;;;;;;;5076429;28;20482;-84
2023/10/23 07:07:41;;;;;;;15.90;12.87;;;;;;;;;;5075963;28;20443;-83
2023/10/23 07:10:10;;;;;;;18.70;13.10;;;;;;;;;;5076535;28;20470;-84
2023/10/23 07:12:36;;;;;;;18.47;12.10;;;;;;;;;;5076196;28;20431;-83
2023/10/23 07:15:03;;;;;;;22.23;13.60;;;;;;;;;;5074197;28;20471;-82
2023/10/23 07:17:30;;;;;;;19.80;13.63;;;;;;;;;;5076065;28;20427;-84
2023/10/23 07:19:57;;;;;;;14.53;11.40;;;;;;;;;;5075588;28;20475;-82
2023/10/23 07:22:23;;;;;;;16.37;12.53;;;;;;;;;;5074542;28;20447;-82
2023/10/23 07:24:50;;;;;;;18.60;13.70;;;;;;;;;;5075640;28;20467;-82
2023/10/23 07:27:18;;;;;;;19.00;14.40;;;;;;;;;;5074683;28;20438;-82
2023/10/23 07:29:44;;;;;;;20.10;14.53;;;;;;;;;;5075705;28;20871;-82
2023/10/23 07:32:10;;;;;;;18.67;14.00;;;;;;;;;;5075964;28;20928;-83
2023/10/23 07:34:37;;;;;;;19.70;14.40;;;;;;;;;;5074428;28;20471;-82
2023/10/23 07:37:04;;;;;;;20.50;13.07;;;;;;;;;;5074385;28;20473;-82
2023/10/23 07:39:30;;;;;;;19.93;13.80;;;;;;;;;;5075046;28;20470;-82
2023/10/23 07:41:56;;;;;;;21.80;13.63;;;;;;;;;;5075542;28;20792;-82
2023/10/23 07:44:24;;;;;;;18.20;13.20;;;;;;;;;;5074522;28;20472;-84
2023/10/23 07:46:52;;;;;;;22.90;15.77;;;;;;;;;;5074003;28;20526;-84
2023/10/23 07:49:18;;;;;;;22.37;13.60;;;;;;;;;;5074773;28;20466;-83
2023/10/23 07:51:45;;;;;;;21.83;15.53;;;;;;;;;;5073896;28;20941;-84
2023/10/23 07:54:11;;;;;;;22.03;14.67;;;;;;;;;;5074510;28;21046;-84
2023/10/23 07:56:38;;;;;;;25.00;16.53;;;;;;;;;;5075174;28;20439;-83
2023/10/23 07:59:06;;;;;;;32.40;19.07;;;;;;;;;;5075292;28;20814;-86
2023/10/23 08:01:33;;;;;;;26.13;17.73;;;;;;;;;;5073644;28;20475;-83
2023/10/23 08:04:00;;;;;;;30.90;20.20;;;;;;;;;;5074803;28;20478;-84
2023/10/23 08:06:26;;;;;;;29.17;18.77;;;;;;;;;;5075647;28;20443;-83
2023/10/23 08:08:53;;;;;;;32.60;20.30;;;;;;;;;;5071714;28;20515;-83
2023/10/23 08:11:19;;;;;;;32.73;19.83;;;;;;;;;;5074952;28;20459;-83
2023/10/23 08:13:45;;;;;;;31.97;19.03;;;;;;;;;;5074179;28;20462;-84
2023/10/23 08:16:12;;;;;;;41.70;20.57;;;;;;;;;;5074543;28;20482;-84
2023/10/23 08:18:41;;;;;;;31.10;20.07;;;;;;;;;;5075574;28;20431;-82
2023/10/23 08:21:11;;;;;;;31.53;20.53;;;;;;;;;;5073467;28;21065;-84
2023/10/23 08:23:37;;;;;;;34.03;21.67;;;;;;;;;;5075014;28;20454;-83
2023/10/23 08:26:04;;;;;;;32.17;20.57;;;;;;;;;;5074330;28;20845;-84
2023/10/23 08:28:31;;;;;;;30.73;20.80;;;;;;;;;;5074350;28;20504;-85
2023/10/23 08:30:57;;;;;;;27.23;19.90;;;;;;;;;;5073171;28;20467;-84
2023/10/23 08:33:23;;;;;;;30.83;19.73;;;;;;;;;;5074134;28;20435;-83
2023/10/23 08:35:51;;;;;;;39.17;21.77;;;;;;;;;;5074066;28;20478;-83
2023/10/23 08:38:18;;;;;;;33.53;21.40;;;;;;;;;;5074782;28;20794;-82
2023/10/23 08:40:44;;;;;;;26.53;20.63;;;;;;;;;;5072814;28;20471;-82
2023/10/23 08:43:11;;;;;;;33.83;22.90;;;;;;;;;;5074401;28;20446;-85
2023/10/23 08:45:39;;;;;;;35.90;23.60;;;;;;;;;;5073537;28;20466;-82
2023/10/23 08:48:05;;;;;;;33.93;22.20;;;;;;;;;;5075646;28;20447;-84
2023/10/23 08:50:32;;;;;;;32.10;21.60;;;;;;;;;;5078180;28;20478;-84
2023/10/23 08:53:02;;;;;;;39.67;23.20;;;;;;;;;;5076702;28;20956;-84
2023/10/23 08:55:29;;;;;;;32.77;21.93;;;;;;;;;;5076668;28;20470;-83
2023/10/23 08:57:58;;;;;;;30.00;21.17;;;;;;;;;;5078340;28;20434;-84
2023/10/23 09:00:24;;;;;;;32.10;21.17;;;;;;;;;;5077802;28;20478;-83
2023/10/23 09:02:52;;;;;;;28.90;19.20;;;;;;;;;;5077799;28;20963;-83
2023/10/23 09:05:19;;;;;;;31.70;21.67;;;;;;;;;;5077567;28;20475;-83
2023/10/23 09:07:45;;;;;;;33.67;22.30;;;;;;;;;;5077902;28;20434;-83
2023/10/23 09:10:14;;;;;;;29.63;19.50;;;;;;;;;;5077152;28;20478;-83
2023/10/23 09:12:41;;;;;;;33.30;19.80;;;;;;;;;;5076448;28;20446;-83
2023/10/23 09:15:14;;;;;;;32.90;20.77;;;;;;;;;;5076804;28;21007;-83
2023/10/23 09:17:40;;;;;;;31.40;20.33;;;;;;;;;;5076204;28;20438;-83
2023/10/23 09:20:20;;;;;;;30.90;19.83;;;;;;;;;;5077046;28;20893;-83
2023/10/23 09:22:47;;;;;;;37.57;20.60;;;;;;;;;;5077553;28;20423;-83
2023/10/23 09:25:15;;;;;;;29.40;19.07;;;;;;;;;;5075575;28;21015;-83
2023/10/23 09:27:42;;;;;;;21.40;17.07;;;;;;;;;;5076948;28;20442;-83
2023/10/23 09:30:09;;;;;;;25.10;18.63;;;;;;;;;;5076362;28;20473;-83
2023/10/23 09:32:35;;;;;;;32.60;19.73;;;;;;;;;;5076141;28;20434;-84
2023/10/23 09:35:02;;;;;;;40.27;22.47;;;;;;;;;;5076419;28;20483;-84
2023/10/23 09:37:29;;;;;;;31.30;21.60;;;;;;;;;;5077150;28;20430;-84
2023/10/23 09:40:00;;;;;;;35.70;21.90;;;;;;;;;;5076237;28;20554;-83
2023/10/23 09:42:33;;;;;;;34.30;21.30;;;;;;;;;;5075880;28;20424;-84
2023/10/23 09:45:00;;;;;;;40.40;22.60;;;;;;;;;;5076547;28;20485;-84
2023/10/23 09:47:27;;;;;;;34.20;22.20;;;;;;;;;;5076584;28;20447;-83
2023/10/23 09:49:54;;;;;;;34.73;23.63;;;;;;;;;;5076487;28;20665;-83
2023/10/23 09:52:23;;;;;;;35.07;23.43;;;;;;;;;;5076936;28;20438;-83
2023/10/23 09:54:50;;;;;;;35.57;23.90;;;;;;;;;;5076229;28;20557;-84
2023/10/23 09:57:17;;;;;;;39.57;24.87;;;;;;;;;;5075330;28;20435;-84
2023/10/23 09:59:49;;;;;;;38.70;24.70;;;;;;;;;;5075443;28;20475;-83
2023/10/23 10:02:18;;;;;;;37.50;25.37;;;;;;;;;;5076560;28;20790;-84
2023/10/23 10:04:51;;;;;;;47.53;27.93;;;;;;;;;;5075814;28;20478;-84
2023/10/23 10:07:21;;;;;;;48.80;25.73;;;;;;;;;;5076869;28;20434;-84
2023/10/23 10:09:48;;;;;;;36.50;25.60;;;;;;;;;;5076333;28;20482;-83
2023/10/23 10:12:14;;;;;;;40.80;26.97;;;;;;;;;;5075902;28;20975;-82
2023/10/23 10:14:41;;;;;;;44.60;28.03;;;;;;;;;;5075628;28;20478;-83
2023/10/23 10:17:10;;;;;;;50.53;26.43;;;;;;;;;;5075023;28;20442;-83
2023/10/23 10:19:38;;;;;;;36.37;25.97;;;;;;;;;;5075786;28;20897;-83
2023/10/23 10:22:07;;;;;;;38.50;25.00;;;;;;;;;;5076398;28;20486;-82
2023/10/23 10:24:33;;;;;;;45.00;27.63;;;;;;;;;;5076051;28;20458;-83
2023/10/23 10:27:01;;;;;;;37.13;25.63;;;;;;;;;;5074599;28;20470;-83
2023/10/23 10:29:27;;;;;;;40.27;24.83;;;;;;;;;;5075498;28;20462;-83
2023/10/23 10:32:04;;;;;;;40.17;25.43;;;;;;;;;;5076028;28;20442;-83
2023/10/23 10:34:33;;;;;;;43.10;25.93;;;;;;;;;;5076049;28;20471;-82
2023/10/23 10:37:00;;;;;;;36.37;24.93;;;;;;;;;;5077486;28;20447;-82
2023/10/23 10:39:53;;;;;;;36.10;23.43;;;;;;;;;;5075749;28;20459;-81
2023/10/23 10:42:20;;;;;;;34.57;25.50;;;;;;;;;;5075578;28;20478;-81
2023/10/23 10:44:52;;;;;;;35.73;24.67;;;;;;;;;;5075301;28;20554;-82
2023/10/23 10:47:19;;;;;;;37.20;24.77;;;;;;;;;;5075153;28;20450;-82
2023/10/23 10:49:47;;;;;;;36.33;25.20;;;;;;;;;;5075455;28;20475;-81
2023/10/23 10:52:26;;;;;;;35.20;23.50;;;;;;;;;;5076672;28;20466;-81
2023/10/23 10:54:54;;;;;;;33.67;23.33;;;;;;;;;;5076935;28;20900;-83
2023/10/23 10:57:21;;;;;;;32.73;24.03;;;;;;;;;;5077054;28;20445;-81
2023/10/23 10:59:47;;;;;;;34.40;24.37;;;;;;;;;;5059164;28;20465;-82
2023/10/23 11:02:15;;;;;;;33.33;23.83;;;;;;;;;;5074717;28;21004;-80
2023/10/23 11:04:41;;;;;;;36.47;24.63;;;;;;;;;;5075358;28;20528;-81
2023/10/23 11:07:09;;;;;;;44.33;27.60;;;;;;;;;;5075986;28;20435;-83
2023/10/23 11:09:35;;;;;;;33.73;24.13;;;;;;;;;;5074994;28;20489;-83
2023/10/23 11:12:02;;;;;;;35.93;24.93;;;;;;;;;;5076033;28;20471;-81
2023/10/23 11:14:28;;;;;;;36.90;25.80;;;;;;;;;;5075289;28;20478;-82
2023/10/23 11:16:55;;;;;;;34.73;24.40;;;;;;;;;;5075628;28;20443;-81
2023/10/23 11:19:21;;;;;;;40.30;28.60;;;;;;;;;;5075542;28;20446;-81
2023/10/23 11:21:48;;;;;;;41.73;28.80;;;;;;;;;;5075574;28;20854;-83
2023/10/23 11:24:16;;;;;;;41.93;28.53;;;;;;;;;;5074435;28;20455;-80
2023/10/23 11:26:45;;;;;;;42.87;28.20;;;;;;;;;;5076782;28;20474;-82
2023/10/23 11:29:11;;;;;;;40.17;25.70;;;;;;;;;;5076314;28;20447;-81
2023/10/23 11:31:39;;;;;;;38.63;26.83;;;;;;;;;;5076073;28;20447;-81
2023/10/23 11:34:09;;;;;;;36.20;25.33;;;;;;;;;;5074931;28;20463;-82
2023/10/23 11:36:35;;;;;;;37.70;27.70;;;;;;;;;;5075200;28;20496;-82
2023/10/23 11:39:07;;;;;;;43.23;29.47;;;;;;;;;;5076094;28;20446;-81
2023/10/23 11:41:35;;;;;;;38.50;28.53;;;;;;;;;;5075360;28;20544;-81
2023/10/23 11:44:03;;;;;;;39.20;27.73;;;;;;;;;;5076194;28;20455;-81
2023/10/23 11:46:29;;;;;;;43.30;29.20;;;;;;;;;;5075694;28;20804;-83
2023/10/23 11:48:56;;;;;;;34.63;25.00;;;;;;;;;;5075336;28;20545;-80
2023/10/23 11:51:22;;;;;;;41.03;29.63;;;;;;;;;;5072203;28;20992;-81
2023/10/23 11:53:48;;;;;;;35.33;25.53;;;;;;;;;;5076034;28;20459;-80
2023/10/23 11:56:15;;;;;;;38.63;27.83;;;;;;;;;;5072968;28;20463;-80
2023/10/23 11:58:45;;;;;;;35.40;26.07;;;;;;;;;;5075538;28;20438;-80
2023/10/23 12:01:12;;;;;;;34.53;24.90;;;;;;;;;;5074655;28;20479;-80
2023/10/23 12:03:38;;;;;;;35.20;26.63;;;;;;;;;;5075390;28;20457;-80
2023/10/23 12:06:05;;;;;;;32.73;23.93;;;;;;;;;;5076378;28;20622;-83
2023/10/23 12:08:31;;;;;;;28.63;22.80;;;;;;;;;;5076765;28;20423;-81
2023/10/23 12:10:58;;;;;;;32.07;22.20;;;;;;;;;;5074226;28;20438;-80
2023/10/23 12:13:25;;;;;;;29.53;21.30;;;;;;;;;;5076372;28;20822;-83
2023/10/23 12:15:52;;;;;;;30.00;21.47;;;;;;;;;;5076106;28;20478;-83
2023/10/23 12:18:22;;;;;;;26.90;20.43;;;;;;;;;;5075854;28;20442;-80
2023/10/23 12:20:48;;;;;;;25.00;19.60;;;;;;;;;;5075648;28;20471;-81
2023/10/23 12:23:15;;;;;;;29.23;21.77;;;;;;;;;;5075512;28;20414;-82
2023/10/23 12:25:41;;;;;;;25.53;19.27;;;;;;;;;;5076015;28;20478;-83
2023/10/23 12:28:07;;;;;;;33.00;19.73;;;;;;;;;;5076050;28;20763;-83
2023/10/23 12:30:34;;;;;;;27.03;19.97;;;;;;;;;;5075731;28;20445;-81
2023/10/23 12:33:03;;;;;;;27.97;20.13;;;;;;;;;;5076251;28;20944;-81
2023/10/23 12:35:30;;;;;;;23.57;18.70;;;;;;;;;;5075371;28;20475;-82
2023/10/23 12:37:57;;;;;;;24.93;18.57;;;;;;;;;;5078908;28;20417;-84
2023/10/23 12:40:23;;;;;;;28.80;18.80;;;;;;;;;;5079980;28;20470;-83
2023/10/23 12:42:50;;;;;;;27.97;21.40;;;;;;;;;;5078646;28;20975;-82
2023/10/23 12:45:16;;;;;;;25.00;17.20;;;;;;;;;;5075567;28;20493;-81
2023/10/23 12:47:43;;;;;;;25.93;18.03;;;;;;;;;;5077111;28;20443;-82
2023/10/23 12:50:11;;;;;;;26.33;18.87;;;;;;;;;;5076654;28;20471;-83
2023/10/23 12:52:38;;;;;;;22.27;16.63;;;;;;;;;;5076899;28;20921;-81
2023/10/23 12:55:05;;;;;;;22.67;17.00;;;;;;;;;;5074930;28;20471;-81
2023/10/23 12:57:32;;;;;;;24.20;18.20;;;;;;;;;;5076147;28;20451;-83
2023/10/23 12:59:58;;;;;;;26.23;17.83;;;;;;;;;;5074934;28;20524;-80
2023/10/23 13:02:24;;;;;;;26.23;17.40;;;;;;;;;;5075668;28;20490;-80
2023/10/23 13:04:51;;;;;;;25.17;19.17;;;;;;;;;;5074253;28;20471;-80
2023/10/23 13:07:19;;;;;;;27.93;20.83;;;;;;;;;;5074102;28;20438;-81
2023/10/23 13:09:45;;;;;;;29.70;20.80;;;;;;;;;;5075336;28;20462;-82
2023/10/23 13:12:12;;;;;;;28.40;21.47;;;;;;;;;;5076245;28;20410;-83
2023/10/23 13:14:38;;;;;;;26.80;20.60;;;;;;;;;;5073476;28;20487;-81
2023/10/23 13:17:05;;;;;;;31.93;22.03;;;;;;;;;;5073418;28;20443;-81
2023/10/23 13:19:31;;;;;;;32.43;21.97;;;;;;;;;;5073369;28;20458;-82
2023/10/23 13:21:57;;;;;;;27.57;21.70;;;;;;;;;;5073180;28;20453;-82
2023/10/23 13:24:26;;;;;;;28.10;19.73;;;;;;;;;;5073155;28;20489;-83
2023/10/23 13:26:53;;;;;;;30.80;22.20;;;;;;;;;;5073310;28;20418;-82
2023/10/23 13:29:20;;;;;;;30.20;20.93;;;;;;;;;;5071887;28;20438;-82
2023/10/23 13:31:48;;;;;;;32.80;21.53;;;;;;;;;;5074023;28;20422;-82
2023/10/23 13:34:14;;;;;;;31.70;22.00;;;;;;;;;;5064934;28;20536;-80
2023/10/23 13:36:41;;;;;;;34.27;23.23;;;;;;;;;;5076091;28;20761;-82
2023/10/23 13:39:08;;;;;;;32.60;22.90;;;;;;;;;;5075538;28;20439;-80
2023/10/23 13:41:36;;;;;;;35.70;22.50;;;;;;;;;;5076605;28;20967;-80
2023/10/23 13:44:03;;;;;;;35.57;22.90;;;;;;;;;;5075856;28;20494;-81
2023/10/23 13:46:29;;;;;;;32.67;22.00;;;;;;;;;;5076925;28;20479;-80
2023/10/23 13:48:56;;;;;;;29.67;23.50;;;;;;;;;;5076634;28;20453;-80
2023/10/23 13:51:22;;;;;;;35.20;22.47;;;;;;;;;;5075172;28;20463;-81
2023/10/23 13:53:49;;;;;;;32.20;23.43;;;;;;;;;;5075202;28;20470;-80
2023/10/23 13:56:15;;;;;;;35.37;23.50;;;;;;;;;;5076173;28;20441;-81
2023/10/23 13:58:46;;;;;;;30.40;21.20;;;;;;;;;;5076567;28;20945;-81
2023/10/23 14:01:13;;;;;;;31.40;20.83;;;;;;;;;;5076650;28;20442;-81
2023/10/23 14:03:42;;;;;;;29.83;20.70;;;;;;;;;;5076950;28;20824;-81
2023/10/23 14:06:08;;;;;;;32.47;20.30;;;;;;;;;;5076304;28;20445;-81
2023/10/23 14:08:35;;;;;;;24.17;18.80;;;;;;;;;;5076466;28;20479;-81
2023/10/23 14:11:01;;;;;;;34.23;20.77;;;;;;;;;;5076483;28;20456;-81
2023/10/23 14:13:28;;;;;;;29.27;19.70;;;;;;;;;;5076914;28;20510;-80
2023/10/23 14:15:55;;;;;;;28.50;18.67;;;;;;;;;;5076586;28;20466;-80
2023/10/23 14:18:22;;;;;;;27.20;18.33;;;;;;;;;;5076279;28;20440;-81